Time;durP1;ratioP1;P1;durP2;ratioP2;P2;SDS_P1;SDS_P2;PMS_P1;PMS_P2;Temp;Humidity;BMP_temperature;BMP_pressure;BME280_temperature;BME280_humidity;BME280_pressure;Samples;Min_cycle;Max_cycle;Signal;HPM_P1;HPM_P2
2022/01/22 00:00:17;;;;;;;5.07;3.63;;;;;;;1.41;53.77;94887.78;5012874;28;20196;-75
2022/01/22 00:02:44;;;;;;;5.30;3.30;;;;;;;1.36;53.75;94880.44;5012642;28;20683;-72
2022/01/22 00:05:12;;;;;;;6.60;3.33;;;;;;;1.39;53.75;94879.50;5012468;28;20199;-74
2022/01/22 00:07:39;;;;;;;5.47;3.70;;;;;;;1.41;53.91;94887.78;5012685;28;20247;-75
2022/01/22 00:10:14;;;;;;;5.43;3.30;;;;;;;1.39;53.64;94887.88;5012191;28;20181;-72
2022/01/22 00:12:55;;;;;;;6.37;3.37;;;;;;;1.39;53.64;94882.00;5012262;28;20228;-74
2022/01/22 00:15:24;;;;;;;5.90;3.50;;;;;;;1.39;53.71;94884.53;5011134;28;20230;-73
2022/01/22 00:17:52;;;;;;;3.80;3.40;;;;;;;1.27;53.78;94875.06;5012366;28;20188;-77
2022/01/22 00:20:22;;;;;;;7.33;3.20;;;;;;;1.40;53.63;94891.19;5012376;28;20192;-78
2022/01/22 00:22:49;;;;;;;5.43;4.17;;;;;;;1.40;53.82;94893.72;5012333;28;20192;-76
2022/01/22 00:25:19;;;;;;;8.90;3.57;;;;;;;1.39;53.45;94889.56;5013082;28;20284;-76
2022/01/22 00:27:48;;;;;;;8.73;3.93;;;;;;;1.38;53.72;94882.88;5012259;28;20695;-77
2022/01/22 00:30:16;;;;;;;8.40;3.53;;;;;;;1.41;53.35;94886.06;5012321;28;20185;-73
2022/01/22 00:32:43;;;;;;;5.10;3.37;;;;;;;1.15;53.47;94843.75;5012153;28;20939;-74
2022/01/22 00:35:11;;;;;;;4.27;2.90;;;;;;;1.45;53.53;94887.53;5011333;28;20204;-75
2022/01/22 00:37:40;;;;;;;5.33;3.10;;;;;;;1.10;53.31;94821.31;5012229;28;20191;-76
2022/01/22 00:40:09;;;;;;;4.73;2.63;;;;;;;1.46;53.67;94890.88;5011753;28;20631;-77
2022/01/22 00:42:38;;;;;;;3.90;3.23;;;;;;;1.46;53.40;94889.16;5011704;28;20680;-76
2022/01/22 00:45:05;;;;;;;3.87;2.90;;;;;;;1.41;53.84;94878.50;5011478;28;20197;-77
2022/01/22 00:47:32;;;;;;;3.13;2.83;;;;;;;1.46;53.44;94884.13;5011949;28;20195;-77
2022/01/22 00:49:59;;;;;;;6.37;3.30;;;;;;;1.47;53.42;94882.44;5011897;28;20203;-78
2022/01/22 00:52:26;;;;;;;7.00;3.33;;;;;;;1.29;53.42;94863.19;5011655;28;20200;-76
2022/01/22 00:54:53;;;;;;;3.97;3.03;;;;;;;1.33;53.34;94865.47;5011752;28;20250;-76
2022/01/22 00:57:20;;;;;;;3.47;3.07;;;;;;;1.47;53.45;94884.97;5011729;28;20193;-77
2022/01/22 00:59:48;;;;;;;4.17;3.20;;;;;;;1.47;53.14;94888.28;5010927;28;20200;-76
2022/01/22 01:02:15;;;;;;;7.40;3.33;;;;;;;1.34;53.24;94876.38;5011901;28;20204;-76
2022/01/22 01:04:42;;;;;;;2.73;2.50;;;;;;;1.46;52.99;94891.69;5011379;28;20195;-78
2022/01/22 01:07:08;;;;;;;5.77;3.27;;;;;;;1.48;52.90;94889.09;5011323;28;20196;-78
2022/01/22 01:09:38;;;;;;;3.27;2.97;;;;;;;1.49;52.99;94880.63;5011430;28;20703;-77
2022/01/22 01:12:08;;;;;;;3.77;3.17;;;;;;;1.44;53.11;94865.75;5011007;28;20192;-78
2022/01/22 01:14:40;;;;;;;3.63;2.90;;;;;;;1.55;52.96;94885.34;5010957;28;20587;-76
2022/01/22 01:17:22;;;;;;;5.60;2.77;;;;;;;1.58;52.93;94887.72;5011485;28;20567;-74
2022/01/22 01:33:41;;;;;;;5.77;4.23;;;;;;;1.75;52.32;94862.47;5011058;28;20228;-73
2022/01/22 01:36:07;;;;;;;4.67;3.70;;;;;;;1.74;52.43;94855.81;5011227;28;20188;-72
2022/01/22 01:38:40;;;;;;;5.40;4.10;;;;;;;1.69;52.58;94830.03;5010859;28;20295;-73
2022/01/22 01:41:16;;;;;;;4.10;3.30;;;;;;;1.86;52.35;94849.31;5011263;28;20579;-72
2022/01/22 01:43:43;;;;;;;8.63;3.50;;;;;;;1.72;51.87;94821.47;5010345;28;20222;-75
2022/01/22 01:46:10;;;;;;;3.60;3.30;;;;;;;1.89;51.89;94844.06;5010614;28;20199;-76
2022/01/22 01:48:42;;;;;;;5.47;3.57;;;;;;;1.93;51.99;94844.72;5010501;28;20192;-76
2022/01/22 01:51:09;;;;;;;7.30;3.33;;;;;;;1.94;52.05;94838.78;5010927;28;20196;-77
2022/01/22 01:53:50;;;;;;;3.93;3.40;;;;;;;1.86;51.77;94831.66;5010660;28;20220;-76
2022/01/22 01:59:01;;;;;;;10.33;3.57;;;;;;;2.00;51.73;94834.25;5010341;28;20189;-75
2022/01/22 02:01:28;;;;;;;5.37;3.77;;;;;;;2.04;51.46;94837.41;5011216;28;20185;-76
2022/01/22 02:03:59;;;;;;;3.87;3.40;;;;;;;2.07;51.45;94839.75;5012807;28;20192;-75
2022/01/22 02:06:25;;;;;;;6.17;3.30;;;;;;;2.09;51.26;94842.22;5013956;28;20192;-74
2022/01/22 02:08:53;;;;;;;5.47;3.07;;;;;;;2.10;51.49;94839.59;5010768;28;20234;-75
2022/01/22 02:11:22;;;;;;;6.17;3.37;;;;;;;2.12;51.02;94840.34;5010589;28;20192;-76
2022/01/22 02:14:02;;;;;;;5.20;3.10;;;;;;;2.16;51.12;94846.00;5009780;28;20377;-78
2022/01/22 02:24:51;;;;;;;4.90;3.17;;;;;;;2.21;51.26;94826.41;5010443;28;20188;-72
2022/01/22 02:27:18;;;;;;;5.43;3.53;;;;;;;2.22;50.94;94826.31;5010351;28;20196;-78
2022/01/22 02:29:46;;;;;;;3.77;2.97;;;;;;;2.08;50.68;94795.19;5010428;28;20338;-77
2022/01/22 02:32:51;;;;;;;2.80;2.60;;;;;;;2.22;50.35;94820.47;5010126;28;20185;-73
2022/01/22 02:35:24;;;;;;;8.50;2.97;;;;;;;2.22;50.48;94816.22;5010242;28;20199;-75
2022/01/22 02:37:58;;;;;;;2.60;2.40;;;;;;;2.19;50.39;94810.53;5010366;28;20196;-75
2022/01/22 02:40:28;;;;;;;7.90;2.80;;;;;;;2.03;50.40;94792.91;5010274;28;20192;-75
2022/01/22 02:42:55;;;;;;;3.23;2.70;;;;;;;2.10;50.26;94813.56;5010420;28;20188;-76
2022/01/22 02:45:23;;;;;;;2.50;2.23;;;;;;;2.06;50.57;94807.06;5009987;28;20188;-74
2022/01/22 02:47:50;;;;;;;2.87;2.67;;;;;;;1.87;50.36;94789.59;5010016;28;20295;-74
2022/01/22 02:50:18;;;;;;;10.93;2.77;;;;;;;1.96;50.43;94816.84;5009989;28;20189;-73
2022/01/22 02:52:45;;;;;;;3.10;2.70;;;;;;;1.81;50.53;94803.31;5009970;28;20196;-73
2022/01/22 02:55:14;;;;;;;4.17;2.60;;;;;;;1.74;50.57;94797.81;5009840;28;20192;-73
2022/01/22 02:57:44;;;;;;;3.23;2.60;;;;;;;1.84;50.55;94820.81;5009747;28;20189;-74
2022/01/22 03:00:15;;;;;;;7.87;5.13;;;;;;;1.82;50.74;94821.81;5013530;28;20360;-74
2022/01/22 03:02:42;;;;;;;8.03;5.60;;;;;;;1.77;50.73;94814.50;5013752;28;20181;-74
2022/01/22 03:05:10;;;;;;;10.67;6.33;;;;;;;1.73;50.81;94813.84;5013770;28;20193;-75
2022/01/22 03:07:39;;;;;;;7.63;5.53;;;;;;;1.70;50.68;94808.97;5013700;28;20286;-74
2022/01/22 03:10:08;;;;;;;9.13;6.33;;;;;;;1.47;50.57;94769.88;5013452;28;20254;-75
2022/01/22 03:13:06;;;;;;;7.67;4.60;;;;;;;1.63;50.92;94801.78;5013671;28;20196;-74
2022/01/22 03:15:48;;;;;;;7.60;4.43;;;;;;;1.61;50.68;94793.53;5013663;28;20189;-74
2022/01/22 03:18:20;;;;;;;5.33;3.90;;;;;;;1.58;50.44;94786.91;5013328;28;20184;-75
2022/01/22 03:21:12;;;;;;;4.17;3.77;;;;;;;1.56;50.80;94790.44;5013521;28;20196;-72
2022/01/22 03:29:13;;;;;;;4.77;3.60;;;;;;;1.48;50.86;94768.16;5012992;28;20196;-72
2022/01/22 03:31:41;;;;;;;5.57;4.07;;;;;;;1.45;50.65;94771.63;5013091;28;20818;-72
2022/01/22 03:34:08;;;;;;;4.60;3.43;;;;;;;1.42;50.91;94766.75;5013180;28;20330;-72
2022/01/22 03:36:35;;;;;;;3.30;2.93;;;;;;;1.32;50.83;94750.50;5013232;28;20220;-75
2022/01/22 03:39:04;;;;;;;4.30;2.87;;;;;;;1.29;50.75;94744.81;5012920;28;20231;-73
2022/01/22 03:41:31;;;;;;;5.17;3.27;;;;;;;1.36;50.74;94759.53;5013148;28;20184;-73
2022/01/22 03:43:58;;;;;;;3.63;2.80;;;;;;;1.34;50.99;94756.28;5013480;28;20196;-73
2022/01/22 03:46:26;;;;;;;4.47;3.00;;;;;;;1.31;50.92;94758.97;5014135;28;20200;-76
2022/01/22 03:48:53;;;;;;;9.90;3.63;;;;;;;1.27;51.01;94752.47;5014902;28;20192;-74
2022/01/22 03:51:20;;;;;;;4.63;3.30;;;;;;;1.22;50.91;94741.81;5023919;28;20185;-75
2022/01/22 03:53:47;;;;;;;4.80;3.40;;;;;;;1.32;51.08;94753.03;5026033;28;20228;-73
2022/01/22 03:56:14;;;;;;;4.60;3.07;;;;;;;1.34;50.93;94757.97;5019401;28;20204;-77
2022/01/22 03:58:45;;;;;;;3.83;2.73;;;;;;;1.38;51.13;94754.41;5012709;28;20192;-73
2022/01/22 04:04:01;;;;;;;5.87;2.80;;;;;;;1.46;51.13;94750.56;4951900;28;20257;-75
2022/01/22 04:07:00;;;;;;;3.53;3.20;;;;;;;1.48;50.98;94741.25;4952205;29;20194;-73
2022/01/22 04:09:26;;;;;;;3.30;3.07;;;;;;;1.51;50.62;94752.84;4951431;28;20309;-73
2022/01/22 04:11:53;;;;;;;3.37;3.07;;;;;;;1.55;50.40;94758.53;4951120;29;20289;-71
2022/01/22 04:14:24;;;;;;;4.27;2.70;;;;;;;1.49;50.38;94755.47;4951324;29;20237;-75
2022/01/22 04:17:10;;;;;;;5.67;2.87;;;;;;;1.55;50.36;94756.84;4951899;29;20251;-72
2022/01/22 04:25:09;;;;;;;4.73;2.80;;;;;;;1.52;50.58;94761.25;4952249;29;20229;-75
2022/01/22 04:27:36;;;;;;;3.20;2.90;;;;;;;1.52;50.53;94758.72;4951920;29;20670;-75
2022/01/22 04:30:05;;;;;;;3.10;2.70;;;;;;;1.47;50.25;94746.38;4951309;29;20202;-72
2022/01/22 04:32:33;;;;;;;5.53;3.17;;;;;;;1.57;50.27;94754.25;4951452;29;20198;-72
2022/01/22 04:35:01;;;;;;;5.63;3.33;;;;;;;1.46;50.46;94714.50;4951728;29;20640;-75
2022/01/22 04:37:29;;;;;;;5.07;2.83;;;;;;;1.62;50.66;94725.38;4951563;29;20198;-72
2022/01/22 04:39:56;;;;;;;5.87;3.17;;;;;;;1.67;50.30;94733.50;4951803;28;20191;-72
2022/01/22 04:42:23;;;;;;;3.37;2.63;;;;;;;1.70;50.36;94735.06;5011831;28;20208;-76
2022/01/22 04:44:57;;;;;;;3.70;2.63;;;;;;;1.75;50.31;94738.94;5011979;28;20218;-74
2022/01/22 04:47:34;;;;;;;5.50;3.20;;;;;;;1.80;50.12;94732.84;5013105;28;20188;-73
2022/01/22 04:55:28;;;;;;;7.03;3.00;;;;;;;1.89;50.43;94719.72;5018880;28;20226;-76
2022/01/22 04:57:55;;;;;;;4.53;3.03;;;;;;;1.91;50.37;94717.94;5018557;28;20238;-73
2022/01/22 05:00:22;;;;;;;6.30;3.40;;;;;;;1.90;50.57;94714.59;5004128;28;20197;-73
2022/01/22 05:02:50;;;;;;;7.33;4.00;;;;;;;1.87;50.46;94707.19;4993488;28;20208;-72
2022/01/22 05:05:18;;;;;;;3.37;2.97;;;;;;;1.87;50.84;94702.16;4990498;28;20201;-73
2022/01/22 05:07:45;;;;;;;5.50;3.10;;;;;;;1.87;50.60;94701.34;4989746;28;20237;-70
2022/01/22 05:10:12;;;;;;;8.60;3.07;;;;;;;1.67;50.55;94680.56;4990140;28;20196;-71
2022/01/22 05:12:39;;;;;;;7.57;3.63;;;;;;;1.98;50.70;94709.13;4990187;28;20196;-71
2022/01/22 05:15:07;;;;;;;5.87;3.00;;;;;;;1.98;50.63;94712.44;4990242;28;20232;-73
2022/01/22 05:17:37;;;;;;;5.03;3.60;;;;;;;1.99;50.79;94704.00;4989820;28;20207;-72
2022/01/22 05:20:09;;;;;;;5.37;3.47;;;;;;;2.01;50.75;94706.44;4989492;28;20352;-74
2022/01/22 05:22:52;;;;;;;6.37;3.60;;;;;;;2.03;50.79;94702.13;4988094;28;20208;-75
2022/01/22 05:25:22;;;;;;;5.27;3.73;;;;;;;2.03;50.67;94698.75;4989906;28;20192;-76
2022/01/22 05:28:08;;;;;;;4.60;3.10;;;;;;;2.03;50.85;94703.81;4989744;28;20264;-75
2022/01/22 05:36:54;;;;;;;4.17;2.87;;;;;;;1.98;51.02;94706.59;4989520;28;20254;-74
2022/01/22 05:39:09;;;;;;;4.97;2.73;;;;;;;1.83;50.81;94692.34;4989121;28;20683;-74
2022/01/22 05:41:35;;;;;;;5.73;3.50;;;;;;;1.92;50.79;94707.75;4989845;28;20575;-73
2022/01/22 05:44:02;;;;;;;4.00;2.90;;;;;;;1.84;50.79;94704.84;4989707;28;20205;-76
2022/01/22 05:46:29;;;;;;;5.37;3.40;;;;;;;1.89;50.97;94725.56;4989465;28;20191;-77
2022/01/22 05:48:58;;;;;;;5.70;2.70;;;;;;;1.74;51.08;94701.22;4989240;28;20188;-75
2022/01/22 05:51:25;;;;;;;3.87;2.73;;;;;;;1.78;51.00;94699.34;4989337;28;20276;-78
2022/01/22 05:54:15;;;;;;;4.77;3.03;;;;;;;1.74;51.10;94691.13;4988765;28;20186;-76
2022/01/22 05:59:37;;;;;;;5.70;3.10;;;;;;;1.91;50.97;94723.78;4988975;28;20192;-78
2022/01/22 06:02:05;;;;;;;4.73;3.33;;;;;;;1.91;51.24;94721.25;4990171;28;20660;-79
2022/01/22 06:04:32;;;;;;;3.50;3.20;;;;;;;1.93;51.14;94711.09;4989922;28;20953;-77
2022/01/22 06:06:59;;;;;;;3.80;3.10;;;;;;;1.94;51.16;94705.97;4990138;28;20248;-74
2022/01/22 06:09:26;;;;;;;3.50;2.70;;;;;;;1.99;51.02;94705.72;4988669;28;20232;-77
2022/01/22 06:11:57;;;;;;;4.30;3.03;;;;;;;2.01;50.94;94708.94;4990108;28;20193;-77
2022/01/22 06:14:24;;;;;;;4.50;2.90;;;;;;;2.03;50.98;94699.59;4991358;28;20228;-75
2022/01/22 06:16:51;;;;;;;4.17;2.97;;;;;;;2.10;51.08;94702.59;4990493;28;20616;-76
2022/01/22 06:19:19;;;;;;;4.63;3.23;;;;;;;2.09;50.92;94699.25;4989317;28;20188;-77
2022/01/22 06:21:50;;;;;;;4.80;3.30;;;;;;;2.13;51.21;94698.19;4989577;28;20189;-75
2022/01/22 06:24:17;;;;;;;5.03;3.43;;;;;;;2.06;51.23;94675.91;4988749;28;20197;-76
2022/01/22 06:26:44;;;;;;;5.80;3.20;;;;;;;2.17;50.94;94708.91;4988634;28;20243;-74
2022/01/22 06:29:12;;;;;;;3.57;3.23;;;;;;;2.16;50.80;94700.53;4988472;28;20197;-76
2022/01/22 06:31:39;;;;;;;4.47;3.07;;;;;;;2.20;50.86;94707.03;4988675;28;20189;-74
2022/01/22 06:34:07;;;;;;;5.77;3.17;;;;;;;2.09;50.84;94688.34;4990237;28;20220;-77
2022/01/22 06:36:35;;;;;;;5.33;3.07;;;;;;;2.23;50.77;94704.31;4992415;28;20192;-77
2022/01/22 06:39:12;;;;;;;4.07;3.30;;;;;;;2.24;50.79;94700.88;4993451;28;20208;-75
2022/01/22 06:41:44;;;;;;;7.80;3.30;;;;;;;2.33;50.45;94711.34;4992103;28;20687;-75
2022/01/22 06:44:15;;;;;;;5.27;3.47;;;;;;;2.35;50.12;94702.00;4992784;28;20203;-75
2022/01/22 06:46:43;;;;;;;5.43;3.17;;;;;;;2.41;50.30;94694.06;4993279;28;20193;-76
2022/01/22 06:49:10;;;;;;;3.73;3.17;;;;;;;2.43;50.38;94695.63;4992955;28;20189;-72
2022/01/22 06:51:37;;;;;;;4.67;3.20;;;;;;;2.47;50.30;94679.41;4992777;28;20507;-74
2022/01/22 06:54:06;;;;;;;4.87;2.53;;;;;;;2.37;50.09;94662.34;4992612;28;20193;-73
2022/01/22 06:56:33;;;;;;;5.13;3.47;;;;;;;2.66;50.17;94689.22;4992879;28;20219;-72
2022/01/22 06:59:01;;;;;;;6.37;4.00;;;;;;;2.75;50.10;94681.09;4992397;28;20208;-71
2022/01/22 07:01:30;;;;;;;4.33;3.80;;;;;;;2.91;49.94;94688.59;4991010;28;20224;-75
2022/01/22 07:03:56;;;;;;;6.97;4.90;;;;;;;3.00;49.66;94682.16;4992703;28;20205;-74
2022/01/22 07:06:23;;;;;;;7.83;4.47;;;;;;;2.97;49.37;94669.72;4993501;28;20228;-73
2022/01/22 07:08:51;;;;;;;7.83;5.50;;;;;;;3.09;49.41;94684.13;4993417;28;20247;-73
2022/01/22 07:11:18;;;;;;;5.33;4.57;;;;;;;3.13;49.31;94689.81;4992267;28;20193;-75
2022/01/22 07:13:45;;;;;;;5.10;4.13;;;;;;;3.25;48.94;94676.44;4992113;28;20189;-72
2022/01/22 07:16:12;;;;;;;8.40;5.10;;;;;;;3.59;48.78;94690.34;4992238;28;20228;-74
2022/01/22 07:18:40;;;;;;;6.63;4.77;;;;;;;4.11;48.70;94686.22;4992343;28;20207;-73
2022/01/22 07:21:15;;;;;;;4.83;3.87;;;;;;;4.91;83.23;94676.69;4992815;28;20216;-73
2022/01/22 07:24:22;;;;;;;6.63;3.90;;;;;;;6.55;82.34;94670.97;4992097;28;20254;-74
2022/01/22 07:26:43;;;;;;;7.00;4.20;;;;;;;8.69;75.19;94668.66;4991362;28;20196;-74
2022/01/22 07:29:11;;;;;;;5.53;3.40;;;;;;;10.30;68.99;94665.88;4991380;28;20193;-73
2022/01/22 07:31:39;;;;;;;4.37;3.07;;;;;;;11.78;64.02;94666.75;4991198;28;20263;-72
2022/01/22 07:34:07;;;;;;;6.77;2.70;;;;;;;13.08;59.08;94664.34;4991460;28;20587;-73
2022/01/22 07:36:34;;;;;;;3.67;3.20;;;;;;;14.09;55.35;94658.41;4991123;28;20660;-76
2022/01/22 07:39:01;;;;;;;3.50;3.07;;;;;;;14.75;53.11;94663.34;4991870;28;20181;-75
2022/01/22 07:41:28;;;;;;;7.87;3.03;;;;;;;15.27;50.11;94660.31;4993452;28;20196;-78
2022/01/22 07:43:55;;;;;;;4.57;3.40;;;;;;;15.73;47.71;94662.22;4996488;28;20190;-76
2022/01/22 07:46:22;;;;;;;3.13;2.67;;;;;;;16.11;45.71;94655.38;4997188;28;20196;-75
2022/01/22 07:48:49;;;;;;;3.97;2.80;;;;;;;16.45;44.14;94656.69;4993357;28;20247;-75
2022/01/22 07:51:18;;;;;;;4.50;2.90;;;;;;;16.72;42.98;94651.03;4990917;28;20236;-79
2022/01/22 07:53:45;;;;;;;4.17;2.90;;;;;;;17.02;42.01;94654.44;4990542;28;20255;-73
2022/01/22 07:56:12;;;;;;;3.50;2.97;;;;;;;17.31;40.70;94665.72;4990726;28;20264;-78
2022/01/22 07:58:39;;;;;;;2.63;2.33;;;;;;;17.59;40.04;94665.88;4990925;28;20189;-74
2022/01/22 08:01:06;;;;;;;3.80;2.97;;;;;;;17.85;39.00;94672.34;4990332;28;20200;-75
2022/01/22 08:03:33;;;;;;;4.23;2.97;;;;;;;18.03;38.47;94670.94;4990732;28;20410;-76
2022/01/22 08:06:00;;;;;;;2.97;2.70;;;;;;;18.17;38.06;94660.72;4993021;28;20208;-75
2022/01/22 08:08:29;;;;;;;4.77;4.07;;;;;;;18.34;40.73;94658.69;5009258;28;20612;-73
2022/01/22 08:10:56;;;;;;;4.83;3.87;;;;;;;18.53;42.80;94652.88;5009669;28;20199;-73
2022/01/22 08:13:23;;;;;;;6.90;3.53;;;;;;;18.72;42.43;94639.28;5010295;28;20197;-75
2022/01/22 08:15:50;;;;;;;3.27;2.90;;;;;;;19.11;41.35;94650.91;5009795;28;20335;-74
2022/01/22 08:18:17;;;;;;;5.40;3.13;;;;;;;19.24;41.11;94650.16;5009626;28;20188;-74
2022/01/22 08:20:45;;;;;;;5.23;3.33;;;;;;;19.28;39.65;94646.19;5010271;28;20192;-75
2022/01/22 08:23:12;;;;;;;6.43;3.43;;;;;;;19.02;35.18;94645.06;5009540;28;20588;-74
2022/01/22 08:25:44;;;;;;;4.17;3.03;;;;;;;18.91;39.97;94643.03;5010376;28;20200;-76
2022/01/22 08:31:02;;;;;;;4.07;2.67;;;;;;;19.10;40.24;94645.91;5008570;28;20266;-77
2022/01/22 08:35:52;;;;;;;4.27;3.33;;;;;;;19.10;39.66;94635.53;5010532;28;20192;-76
2022/01/22 08:36:19;;;;;;;7.30;2.70;;;;;;;18.69;36.16;94634.47;5009426;28;20319;-74
2022/01/22 08:38:46;;;;;;;3.37;2.70;;;;;;;18.07;33.77;94637.75;5009752;28;20303;-76
2022/01/22 08:41:14;;;;;;;3.70;3.00;;;;;;;17.42;33.09;94628.28;5009527;28;20200;-74
2022/01/22 08:43:41;;;;;;;5.27;3.00;;;;;;;16.82;32.64;94632.69;5009530;28;20192;-75
2022/01/22 08:46:07;;;;;;;3.77;2.53;;;;;;;16.45;32.10;94628.31;5009315;28;20254;-78
2022/01/22 08:48:34;;;;;;;2.80;2.27;;;;;;;16.07;31.87;94641.22;5009130;28;20200;-76
2022/01/22 08:51:01;;;;;;;3.37;2.43;;;;;;;15.48;31.62;94639.13;5009712;28;20671;-74
2022/01/22 08:53:28;;;;;;;3.73;2.40;;;;;;;15.05;31.92;94636.06;5009517;28;20552;-75
2022/01/22 08:55:56;;;;;;;3.80;2.80;;;;;;;14.64;31.72;94644.91;5008946;28;20213;-77
2022/01/22 08:58:25;;;;;;;5.77;2.97;;;;;;;13.98;31.84;94619.16;5009538;28;20185;-77
2022/01/22 09:00:52;;;;;;;3.13;2.83;;;;;;;13.59;32.26;94652.34;5008569;28;20256;-76
2022/01/22 09:03:20;;;;;;;3.43;2.80;;;;;;;12.92;32.42;94618.09;5009116;28;20207;-74
2022/01/22 09:05:47;;;;;;;2.70;2.50;;;;;;;12.47;32.84;94619.09;5009197;28;20220;-73
2022/01/22 09:08:15;;;;;;;5.10;2.83;;;;;;;12.24;33.14;94650.38;5009133;28;20236;-73
2022/01/22 09:10:43;;;;;;;3.47;2.63;;;;;;;11.89;33.69;94640.16;5009289;28;20283;-75
2022/01/22 09:13:10;;;;;;;3.20;2.57;;;;;;;11.62;33.64;94643.56;5008711;28;20739;-74
2022/01/22 09:15:39;;;;;;;3.67;2.83;;;;;;;11.19;33.97;94630.47;5008975;28;20234;-73
2022/01/22 09:18:07;;;;;;;3.07;2.63;;;;;;;11.01;34.06;94629.59;5008919;28;20607;-73
2022/01/22 09:21:01;;;;;;;3.60;2.90;;;;;;;10.89;34.16;94646.09;5008910;28;20665;-74
2022/01/22 09:23:28;;;;;;;3.17;2.70;;;;;;;10.66;34.46;94645.63;5008121;28;20196;-73
2022/01/22 09:25:55;;;;;;;5.90;2.93;;;;;;;10.45;34.84;94641.50;5008458;28;20664;-74
2022/01/22 09:28:22;;;;;;;4.87;3.33;;;;;;;10.30;34.99;94646.25;5008814;28;20191;-78
2022/01/22 09:30:50;;;;;;;3.00;2.70;;;;;;;10.13;35.50;94646.91;5008539;28;20199;-73
2022/01/22 09:33:17;;;;;;;6.17;3.43;;;;;;;9.98;35.37;94632.94;5008498;28;20266;-72
2022/01/22 09:35:44;;;;;;;4.23;3.40;;;;;;;9.95;37.19;94628.09;5008415;28;20220;-73
2022/01/22 09:38:11;;;;;;;5.43;2.80;;;;;;;9.98;37.40;94622.72;5008526;28;20603;-75
2022/01/22 09:40:37;;;;;;;4.73;3.33;;;;;;;9.94;38.07;94614.53;5008257;28;20204;-74
2022/01/22 09:43:05;;;;;;;3.90;3.17;;;;;;;9.85;37.99;94617.88;5008246;28;20205;-74
2022/01/22 09:45:32;;;;;;;3.07;2.77;;;;;;;9.73;37.72;94608.75;5008198;28;20719;-75
2022/01/22 09:48:01;;;;;;;3.87;3.37;;;;;;;9.59;37.59;94596.41;5007703;28;20680;-72
2022/01/22 09:50:31;;;;;;;3.97;3.33;;;;;;;9.49;37.31;94588.72;5007812;28;20201;-74
2022/01/22 09:52:58;;;;;;;5.30;4.20;;;;;;;9.37;37.20;94580.41;5007973;28;20200;-75
2022/01/22 09:55:26;;;;;;;6.17;3.97;;;;;;;9.27;37.21;94577.00;5007878;28;20212;-75
2022/01/22 09:57:54;;;;;;;4.57;3.33;;;;;;;9.14;37.01;94571.34;5008234;28;20680;-74
2022/01/22 10:00:23;;;;;;;5.03;3.20;;;;;;;9.21;65.36;94563.03;5003877;28;20250;-73
2022/01/22 10:02:51;;;;;;;4.17;3.40;;;;;;;9.40;56.22;94575.00;4999315;28;20200;-73
2022/01/22 10:05:32;;;;;;;6.50;3.53;;;;;;;9.19;45.21;94562.34;4998266;28;20187;-73
2022/01/22 10:08:27;;;;;;;4.67;3.40;;;;;;;8.93;41.73;94562.03;4999917;28;20228;-75
2022/01/22 10:10:55;;;;;;;4.00;3.60;;;;;;;8.72;39.96;94559.59;4999747;28;20213;-75
2022/01/22 10:13:39;;;;;;;4.47;3.10;;;;;;;8.48;38.99;94567.53;4998109;28;20193;-73
2022/01/22 10:16:18;;;;;;;4.20;2.90;;;;;;;8.25;38.65;94556.69;4998993;28;20227;-75
2022/01/22 10:18:45;;;;;;;4.73;3.60;;;;;;;8.05;38.61;94560.88;4998422;28;20188;-74
2022/01/22 10:21:15;;;;;;;4.73;3.03;;;;;;;7.94;38.70;94558.38;5002084;28;20676;-75
2022/01/22 10:23:43;;;;;;;3.50;3.07;;;;;;;7.83;38.50;94553.38;4997124;28;20193;-77
2022/01/22 10:26:14;;;;;;;5.57;2.80;;;;;;;7.69;38.36;94533.31;4992071;28;20193;-72
2022/01/22 10:28:46;;;;;;;4.40;2.90;;;;;;;7.80;38.69;94561.25;4991288;28;20197;-75
2022/01/22 10:31:24;;;;;;;3.90;3.03;;;;;;;7.70;38.77;94556.09;4991153;28;20284;-73
2022/01/22 10:34:05;;;;;;;5.03;3.20;;;;;;;7.74;38.64;94554.13;4990626;28;20185;-77
2022/01/22 10:36:33;;;;;;;3.33;2.90;;;;;;;7.75;38.63;94543.00;4990487;28;20231;-75
2022/01/22 10:39:01;;;;;;;4.67;3.10;;;;;;;7.57;38.63;94513.94;4990467;28;20200;-75
2022/01/22 10:41:36;;;;;;;9.47;3.17;;;;;;;7.87;45.64;94533.56;4990300;28;20292;-75
2022/01/22 10:44:05;;;;;;;4.40;3.00;;;;;;;8.14;44.39;94536.38;4990821;28;20247;-76
2022/01/22 10:46:44;;;;;;;6.13;3.13;;;;;;;8.35;42.50;94530.44;4990629;28;20200;-74
2022/01/22 10:49:13;;;;;;;6.00;3.20;;;;;;;8.46;41.66;94523.56;4990027;28;20204;-73
2022/01/22 10:51:50;;;;;;;4.97;2.50;;;;;;;8.52;40.75;94512.03;4989355;28;20251;-74
2022/01/22 10:54:18;;;;;;;4.30;2.50;;;;;;;8.57;40.28;94511.63;4990640;28;20189;-76
2022/01/22 10:56:46;;;;;;;4.90;2.80;;;;;;;8.60;39.97;94514.75;4990529;28;20212;-74
2022/01/22 10:59:16;;;;;;;3.63;2.70;;;;;;;8.71;39.27;94521.47;4990195;28;20196;-75
2022/01/22 11:01:52;;;;;;;4.33;3.10;;;;;;;8.81;39.03;94519.75;4990178;28;20751;-74
2022/01/22 11:04:22;;;;;;;3.03;2.77;;;;;;;8.95;38.96;94531.31;4989687;28;20279;-77
2022/01/22 11:06:53;;;;;;;4.67;2.70;;;;;;;8.88;38.43;94494.53;4990102;28;20198;-75
2022/01/22 11:09:21;;;;;;;5.23;3.00;;;;;;;9.10;38.45;94503.69;4989734;28;20229;-75
2022/01/22 11:11:48;;;;;;;3.43;2.70;;;;;;;9.20;37.95;94510.41;4990155;28;20676;-76
2022/01/22 11:14:16;;;;;;;5.47;3.10;;;;;;;9.25;38.11;94508.25;4990095;28;20283;-75
2022/01/22 11:16:45;;;;;;;6.83;2.80;;;;;;;9.26;37.97;94509.84;4988196;28;20269;-75
2022/01/22 11:19:15;;;;;;;5.13;3.03;;;;;;;9.28;38.01;94508.00;4989915;28;20573;-74
2022/01/22 11:21:47;;;;;;;3.80;2.87;;;;;;;9.34;38.07;94506.66;4993823;28;20216;-76
2022/01/22 11:24:18;;;;;;;4.50;3.40;;;;;;;9.23;37.92;94471.03;4993026;28;20568;-76
2022/01/22 11:26:49;;;;;;;4.00;2.80;;;;;;;9.41;37.78;94494.97;4993428;28;20200;-75
2022/01/22 11:29:17;;;;;;;2.90;2.70;;;;;;;9.42;37.84;94500.88;4993221;28;20596;-75
2022/01/22 11:31:46;;;;;;;3.13;2.70;;;;;;;9.43;37.89;94498.19;4993453;28;20665;-76
2022/01/22 11:34:15;;;;;;;4.60;2.80;;;;;;;9.45;38.03;94487.81;4992978;28;20193;-74
2022/01/22 11:36:47;;;;;;;3.47;2.97;;;;;;;9.47;37.68;94483.41;4993203;28;20787;-76
2022/01/22 11:39:21;;;;;;;4.10;2.67;;;;;;;9.48;37.57;94480.69;4996259;28;20273;-77
2022/01/22 11:41:53;;;;;;;3.23;2.73;;;;;;;9.47;37.46;94486.75;4999339;28;20191;-76
2022/01/22 11:44:26;;;;;;;5.87;3.40;;;;;;;9.49;37.38;94481.50;4994267;28;20189;-77
2022/01/22 11:47:08;;;;;;;4.40;2.67;;;;;;;9.49;37.42;94476.41;4994894;28;20192;-74
2022/01/22 11:49:35;;;;;;;3.50;2.80;;;;;;;9.50;37.64;94485.69;4996458;28;20193;-77
2022/01/22 11:52:23;;;;;;;3.77;3.17;;;;;;;9.36;37.48;94469.03;4996033;28;20639;-76
2022/01/22 11:54:54;;;;;;;3.83;2.80;;;;;;;9.47;37.49;94486.75;4995229;28;20185;-77
2022/01/22 11:57:23;;;;;;;4.13;2.80;;;;;;;9.44;37.65;94478.56;4994874;28;20229;-76
2022/01/22 12:00:21;;;;;;;3.93;3.27;;;;;;;9.40;37.75;94482.31;4993149;28;20192;-76
2022/01/22 12:03:22;;;;;;;4.43;3.20;;;;;;;9.36;37.65;94479.22;4992504;28;20548;-77
2022/01/22 12:06:07;;;;;;;5.03;2.93;;;;;;;9.31;37.86;94471.19;4991267;28;20189;-73
2022/01/22 12:09:03;;;;;;;4.90;3.03;;;;;;;9.23;37.95;94479.50;4992696;28;20220;-77
2022/01/22 12:14:55;;;;;;;5.57;2.90;;;;;;;9.05;38.03;94476.00;4992358;28;20200;-75
2022/01/22 12:18:05;;;;;;;3.43;3.13;;;;;;;8.91;38.24;94466.22;4992311;28;20271;-76
2022/01/22 12:23:51;;;;;;;4.00;3.60;;;;;;;8.63;38.63;94449.94;4932423;29;20686;-74
2022/01/22 12:26:48;;;;;;;5.50;3.13;;;;;;;8.67;38.93;94466.56;4932275;29;20242;-73
2022/01/22 12:29:34;;;;;;;3.73;3.43;;;;;;;8.57;39.28;94470.84;4931981;29;20754;-75
2022/01/22 12:32:22;;;;;;;4.97;3.93;;;;;;;8.45;39.57;94470.16;4929720;29;20254;-75
2022/01/22 12:35:12;;;;;;;4.60;3.30;;;;;;;8.28;40.15;94458.81;4932030;29;20379;-75
2022/01/22 12:37:47;;;;;;;4.27;3.20;;;;;;;8.29;40.51;94463.00;4931751;29;20314;-77
2022/01/22 12:40:26;;;;;;;5.63;3.40;;;;;;;8.35;40.48;94472.66;4932143;29;20717;-77
2022/01/22 12:45:41;;;;;;;3.43;3.10;;;;;;;8.39;40.45;94466.41;4929869;29;20939;-73
2022/01/22 12:48:08;;;;;;;3.10;2.90;;;;;;;8.42;40.54;94463.59;4931993;29;20289;-75
2022/01/22 12:50:37;;;;;;;4.43;2.97;;;;;;;8.43;40.41;94460.09;4932358;29;20199;-75
2022/01/22 12:53:16;;;;;;;3.30;3.00;;;;;;;8.41;40.42;94453.50;4931990;29;20195;-77
2022/01/22 12:56:02;;;;;;;5.50;3.10;;;;;;;8.37;40.60;94452.97;4915875;29;20198;-75
2022/01/22 12:58:33;;;;;;;5.50;3.43;;;;;;;8.32;40.42;94451.72;4986572;28;20284;-75
2022/01/22 13:01:20;;;;;;;3.73;3.00;;;;;;;8.22;40.43;94446.59;4992074;28;20205;-74
2022/01/22 13:03:49;;;;;;;3.60;3.10;;;;;;;8.12;40.57;94440.66;4991561;28;20200;-76